Time;durP1;ratioP1;P1;durP2;ratioP2;P2;SDS_P1;SDS_P2;PMS_P1;PMS_P2;Temp;Humidity;BMP_temperature;BMP_pressure;BME280_temperature;BME280_humidity;BME280_pressure;Samples;Min_cycle;Max_cycle;Signal;HPM_P1;HPM_P2
2021/05/27 00:01:33;;;;;;;22.07;19.07;;;11.20;99.90;;;;;;4998203;28;20477;-73
2021/05/27 00:04:00;;;;;;;21.13;19.33;;;11.30;99.90;;;;;;4994786;28;20465;-73
2021/05/27 00:06:26;;;;;;;22.03;20.13;;;11.20;99.90;;;;;;4999314;28;20506;-73
2021/05/27 00:08:53;;;;;;;20.13;18.53;;;11.30;99.90;;;;;;5000940;28;20476;-73
2021/05/27 00:11:20;;;;;;;21.17;19.07;;;11.30;99.90;;;;;;5002622;28;20472;-74
2021/05/27 00:13:46;;;;;;;21.30;19.30;;;11.20;99.90;;;;;;4997633;28;20461;-74
2021/05/27 00:16:12;;;;;;;21.70;20.00;;;11.30;99.90;;;;;;4996537;28;20466;-72
2021/05/27 00:18:39;;;;;;;19.27;17.67;;;11.20;99.90;;;;;;4995325;28;20657;-72
2021/05/27 00:21:06;;;;;;;19.33;17.87;;;11.20;99.90;;;;;;4999975;28;20461;-73
2021/05/27 00:23:32;;;;;;;20.17;18.67;;;11.30;99.90;;;;;;4998715;28;20528;-74
2021/05/27 00:25:59;;;;;;;20.30;18.80;;;11.30;99.90;;;;;;4998813;28;20471;-73
2021/05/27 00:28:25;;;;;;;20.40;18.30;;;11.30;99.90;;;;;;5001389;28;20786;-74
2021/05/27 00:30:52;;;;;;;19.97;18.03;;;11.40;99.90;;;;;;5004648;28;20474;-74
2021/05/27 00:33:18;;;;;;;20.17;18.10;;;11.30;99.90;;;;;;5002025;28;20474;-72
2021/05/27 00:35:44;;;;;;;19.30;17.87;;;11.20;99.90;;;;;;5001420;28;20470;-73
2021/05/27 00:38:11;;;;;;;18.47;16.83;;;11.30;99.90;;;;;;4999869;28;20453;-74
2021/05/27 00:40:37;;;;;;;19.30;17.70;;;11.20;99.90;;;;;;5002901;28;20476;-73
2021/05/27 00:43:05;;;;;;;19.00;17.70;;;11.20;99.90;;;;;;5001686;28;20492;-72
2021/05/27 00:45:31;;;;;;;20.10;18.70;;;11.20;99.90;;;;;;5000216;28;20464;-72
2021/05/27 00:47:58;;;;;;;19.90;18.10;;;11.20;99.90;;;;;;5000454;28;21179;-72
2021/05/27 00:50:25;;;;;;;19.17;17.47;;;11.10;99.90;;;;;;5003279;28;20525;-72
2021/05/27 00:52:53;;;;;;;18.90;17.20;;;11.10;99.90;;;;;;5002133;28;20484;-73
2021/05/27 00:55:21;;;;;;;19.87;18.07;;;11.20;99.90;;;;;;4998680;28;20520;-73
2021/05/27 00:57:48;;;;;;;18.60;16.93;;;11.10;99.90;;;;;;5000479;28;20488;-73
2021/05/27 01:00:18;;;;;;;19.60;17.87;;;11.10;99.90;;;;;;5003761;28;20467;-72
2021/05/27 01:02:45;;;;;;;20.17;18.30;;;11.20;99.90;;;;;;4995831;28;20857;-72
2021/05/27 01:05:14;;;;;;;20.37;18.37;;;11.10;99.90;;;;;;5004628;28;20842;-73
2021/05/27 01:07:41;;;;;;;19.87;17.90;;;11.10;99.90;;;;;;5002953;28;20496;-72
2021/05/27 01:10:10;;;;;;;20.40;18.77;;;11.10;99.90;;;;;;4997456;28;20536;-72
2021/05/27 01:12:37;;;;;;;19.90;18.17;;;11.10;99.90;;;;;;4999946;28;20493;-73
2021/05/27 01:17:49;;;;;;;20.07;18.10;;;11.00;99.90;;;;;;4995734;28;20517;-73
2021/05/27 01:20:16;;;;;;;20.57;18.87;;;10.90;99.90;;;;;;5003222;28;21233;-73
2021/05/27 01:22:44;;;;;;;20.07;18.10;;;10.90;99.90;;;;;;5003225;28;20924;-74
2021/05/27 01:25:13;;;;;;;18.87;17.50;;;10.90;99.90;;;;;;5002225;28;20493;-72
2021/05/27 01:27:39;;;;;;;21.37;19.37;;;10.90;99.90;;;;;;5000877;28;20584;-72
2021/05/27 01:30:09;;;;;;;21.60;19.30;;;10.80;99.90;;;;;;5001066;28;20495;-73
2021/05/27 01:32:36;;;;;;;20.47;18.03;;;10.90;99.90;;;;;;4994916;28;20467;-72
2021/05/27 01:35:04;;;;;;;20.67;18.97;;;10.80;99.90;;;;;;5000651;28;20454;-72
2021/05/27 01:37:31;;;;;;;20.70;19.00;;;10.80;99.90;;;;;;4998780;28;20469;-73
2021/05/27 01:40:01;;;;;;;20.83;18.90;;;10.80;99.90;;;;;;4996742;28;20469;-74
2021/05/27 01:42:27;;;;;;;19.47;17.90;;;10.80;99.90;;;;;;5000604;28;20984;-72
2021/05/27 01:44:54;;;;;;;20.60;18.80;;;10.80;99.90;;;;;;5000120;28;20468;-73
2021/05/27 01:47:20;;;;;;;20.93;18.97;;;10.70;99.90;;;;;;5004314;28;21050;-73
2021/05/27 01:49:47;;;;;;;21.40;19.50;;;10.70;99.90;;;;;;5003018;28;20465;-72
2021/05/27 01:52:13;;;;;;;20.83;19.13;;;10.80;99.90;;;;;;5000497;28;20824;-73
2021/05/27 01:54:41;;;;;;;21.67;19.70;;;10.80;99.90;;;;;;5000222;28;20482;-74
2021/05/27 01:57:09;;;;;;;25.83;19.60;;;10.80;99.90;;;;;;5002946;28;20476;-72
2021/05/27 01:59:36;;;;;;;21.20;19.40;;;10.80;99.90;;;;;;5004070;28;20465;-73
2021/05/27 02:02:03;;;;;;;20.63;18.67;;;10.80;99.90;;;;;;4995579;28;20574;-72
2021/05/27 02:04:29;;;;;;;21.23;19.30;;;10.80;99.90;;;;;;4998508;28;20465;-72
2021/05/27 02:06:56;;;;;;;20.20;18.50;;;10.80;99.90;;;;;;5001116;28;20472;-72
2021/05/27 02:09:22;;;;;;;23.07;19.70;;;10.80;99.90;;;;;;4996541;28;20481;-72
2021/05/27 02:11:50;;;;;;;22.43;20.40;;;10.90;99.90;;;;;;5004219;28;20474;-73
2021/05/27 02:14:19;;;;;;;23.60;21.43;;;10.90;99.90;;;;;;5002912;28;20548;-73
2021/05/27 02:16:46;;;;;;;22.30;20.20;;;10.90;99.90;;;;;;5003717;28;20488;-74
2021/05/27 02:19:13;;;;;;;23.93;21.70;;;10.90;99.90;;;;;;4999608;28;20467;-73
2021/05/27 02:21:40;;;;;;;21.23;19.53;;;10.90;99.90;;;;;;5002606;28;20476;-74
2021/05/27 02:24:08;;;;;;;22.97;20.73;;;10.90;99.90;;;;;;5003199;28;20557;-72
2021/05/27 02:26:35;;;;;;;23.60;21.50;;;10.90;99.90;;;;;;5001481;28;20470;-72
2021/05/27 02:29:02;;;;;;;23.33;21.17;;;10.90;99.90;;;;;;4997775;28;20491;-74
2021/05/27 02:31:29;;;;;;;23.30;20.93;;;10.90;99.90;;;;;;5004109;28;20464;-74
2021/05/27 02:33:55;;;;;;;22.07;20.20;;;11.00;99.90;;;;;;4997676;28;20520;-72
2021/05/27 02:36:24;;;;;;;25.43;20.83;;;11.00;99.90;;;;;;4999718;28;20471;-74
2021/05/27 02:38:50;;;;;;;23.53;21.40;;;10.90;99.90;;;;;;4998244;28;20570;-73
2021/05/27 02:41:17;;;;;;;25.07;22.60;;;10.90;99.90;;;;;;5002825;28;20982;-75
2021/05/27 02:43:43;;;;;;;25.90;23.20;;;10.80;99.90;;;;;;4998267;28;20486;-73
2021/05/27 02:46:10;;;;;;;24.40;22.07;;;10.80;99.90;;;;;;4997899;28;20469;-74
2021/05/27 02:48:38;;;;;;;26.23;21.60;;;10.80;99.90;;;;;;4999276;28;20851;-73
2021/05/27 02:51:06;;;;;;;23.60;21.40;;;10.80;99.90;;;;;;5002219;28;20465;-73
2021/05/27 02:53:32;;;;;;;25.60;23.20;;;10.70;99.90;;;;;;4999689;28;20520;-72
2021/05/27 02:55:59;;;;;;;25.83;23.37;;;10.70;99.90;;;;;;4999558;28;20485;-72
2021/05/27 02:58:25;;;;;;;25.20;22.90;;;10.70;99.90;;;;;;4997914;28;20499;-73
2021/05/27 03:00:52;;;;;;;31.40;25.07;;;10.70;99.90;;;;;;5002345;28;20460;-74
2021/05/27 03:03:20;;;;;;;25.97;23.53;;;10.60;99.90;;;;;;4999082;28;20941;-73
2021/05/27 03:05:48;;;;;;;35.53;23.80;;;10.60;99.90;;;;;;5001257;28;20763;-73
2021/05/27 03:08:15;;;;;;;28.33;24.87;;;10.60;99.90;;;;;;5002187;28;20474;-73
2021/05/27 03:10:41;;;;;;;26.30;23.57;;;10.50;99.90;;;;;;5000792;28;20475;-74
2021/05/27 03:13:07;;;;;;;26.20;23.80;;;10.60;99.90;;;;;;5002349;28;20467;-73
2021/05/27 03:15:34;;;;;;;26.57;24.17;;;10.60;99.90;;;;;;4997420;28;20501;-73
2021/05/27 03:18:01;;;;;;;28.17;25.20;;;10.70;99.90;;;;;;5000096;28;20471;-72
2021/05/27 03:20:29;;;;;;;26.27;23.77;;;10.60;99.90;;;;;;5002480;28;20501;-73
2021/05/27 03:22:57;;;;;;;26.97;24.43;;;10.60;99.90;;;;;;5003502;28;20973;-73
2021/05/27 03:25:23;;;;;;;28.77;25.70;;;10.50;99.90;;;;;;4999910;28;20467;-73
2021/05/27 03:27:50;;;;;;;28.30;23.77;;;10.70;99.90;;;;;;4994797;28;20933;-73
2021/05/27 03:30:17;;;;;;;28.60;24.03;;;10.70;99.90;;;;;;5002921;28;20547;-74
2021/05/27 03:32:44;;;;;;;24.90;22.00;;;10.70;99.90;;;;;;5004615;28;20473;-73
2021/05/27 03:35:11;;;;;;;26.50;23.20;;;10.70;99.90;;;;;;5001577;28;20489;-73
2021/05/27 03:37:39;;;;;;;24.83;22.33;;;10.70;99.90;;;;;;5003196;28;20492;-74
2021/05/27 03:40:12;;;;;;;25.20;22.80;;;10.70;99.90;;;;;;5001552;28;20464;-72
2021/05/27 03:42:41;;;;;;;25.20;22.27;;;10.70;99.90;;;;;;4996188;28;20494;-73
2021/05/27 03:45:09;;;;;;;24.33;21.80;;;10.80;99.90;;;;;;5001516;28;21015;-73
2021/05/27 03:47:37;;;;;;;23.20;20.87;;;10.80;99.90;;;;;;5001793;28;20846;-73
2021/05/27 03:50:06;;;;;;;24.00;21.70;;;10.80;99.90;;;;;;5005655;28;20473;-73
2021/05/27 03:52:33;;;;;;;24.23;21.80;;;10.80;99.90;;;;;;4996579;28;20468;-73
2021/05/27 03:54:59;;;;;;;23.47;21.30;;;10.70;99.90;;;;;;5001271;28;20471;-73
2021/05/27 03:57:27;;;;;;;24.00;21.77;;;10.80;99.90;;;;;;4996953;28;20472;-74
2021/05/27 04:02:42;;;;;;;24.60;21.90;;;10.80;99.90;;;;;;5001859;28;20865;-73
2021/05/27 04:07:54;;;;;;;23.27;20.47;;;10.90;99.90;;;;;;5004978;28;20585;-74
2021/05/27 04:10:21;;;;;;;23.40;21.40;;;10.90;99.90;;;;;;5002271;28;20476;-72
2021/05/27 04:12:48;;;;;;;23.40;20.27;;;11.00;99.90;;;;;;5009003;28;20577;-73
2021/05/27 04:15:21;;;;;;;23.50;20.67;;;11.00;99.90;;;;;;5009845;28;20512;-73
2021/05/27 04:17:58;;;;;;;21.83;19.90;;;11.10;99.90;;;;;;5007995;28;20460;-72
2021/05/27 04:20:26;;;;;;;25.37;21.10;;;11.00;99.90;;;;;;5004057;28;20542;-74
2021/05/27 04:22:53;;;;;;;24.97;21.33;;;11.00;99.90;;;;;;5006979;28;20517;-73
2021/05/27 04:25:22;;;;;;;24.73;22.33;;;11.00;99.90;;;;;;5000055;28;20729;-74
2021/05/27 04:27:50;;;;;;;24.20;21.83;;;11.00;99.90;;;;;;4996851;28;20541;-72
2021/05/27 04:30:18;;;;;;;25.20;21.90;;;11.00;99.90;;;;;;4998369;28;20949;-72
2021/05/27 04:32:55;;;;;;;26.13;23.50;;;11.00;99.90;;;;;;4998065;28;20819;-72
2021/05/27 04:35:26;;;;;;;27.70;22.27;;;11.00;99.90;;;;;;5004516;28;20472;-73
2021/05/27 04:37:53;;;;;;;26.40;23.47;;;11.00;99.90;;;;;;5005002;28;20496;-73
2021/05/27 04:40:21;;;;;;;27.00;24.70;;;11.00;99.90;;;;;;4997629;28;20881;-74
2021/05/27 04:42:47;;;;;;;28.67;23.73;;;11.00;99.90;;;;;;5002182;28;20499;-73
2021/05/27 04:45:15;;;;;;;27.03;24.43;;;11.00;99.90;;;;;;5003199;28;20469;-72
2021/05/27 04:47:41;;;;;;;24.53;21.70;;;10.90;99.90;;;;;;5004344;28;20455;-73
2021/05/27 04:50:09;;;;;;;26.50;23.87;;;10.90;99.90;;;;;;5007025;28;20474;-74
2021/05/27 04:52:36;;;;;;;26.20;23.73;;;10.90;99.90;;;;;;5001795;28;20477;-74
2021/05/27 04:55:04;;;;;;;28.80;25.93;;;11.00;99.90;;;;;;5003420;28;20567;-74
2021/05/27 04:57:30;;;;;;;27.10;24.60;;;11.00;99.90;;;;;;5003820;28;20461;-74
2021/05/27 04:59:57;;;;;;;32.27;26.03;;;11.00;99.90;;;;;;5005641;28;20495;-74
2021/05/27 05:02:24;;;;;;;27.13;24.43;;;11.00;99.90;;;;;;5005653;28;20578;-74
2021/05/27 05:04:50;;;;;;;30.13;26.93;;;10.90;99.90;;;;;;5006694;28;20959;-72
2021/05/27 05:07:17;;;;;;;28.90;26.00;;;10.90;99.90;;;;;;5007785;28;20465;-72
2021/05/27 05:09:43;;;;;;;32.20;28.57;;;10.90;99.90;;;;;;5002898;28;20469;-73
2021/05/27 05:12:10;;;;;;;31.63;28.37;;;10.90;99.90;;;;;;5003138;28;20469;-74
2021/05/27 05:14:36;;;;;;;31.73;28.33;;;10.90;99.90;;;;;;5005978;28;20512;-72
2021/05/27 05:17:03;;;;;;;30.60;27.80;;;10.80;99.90;;;;;;5005962;28;20449;-73
2021/05/27 05:19:30;;;;;;;32.43;29.07;;;10.90;99.90;;;;;;5005622;28;20519;-71
2021/05/27 05:21:58;;;;;;;38.20;34.10;;;10.80;99.90;;;;;;5004439;28;20457;-73
2021/05/27 05:24:24;;;;;;;37.90;34.00;;;10.70;99.90;;;;;;5002033;28;20473;-72
2021/05/27 05:26:52;;;;;;;37.03;33.33;;;10.70;99.90;;;;;;5000562;28;20471;-73
2021/05/27 05:29:19;;;;;;;38.70;34.53;;;10.60;99.90;;;;;;5009909;28;20520;-75
2021/05/27 05:31:46;;;;;;;38.67;34.73;;;10.60;99.90;;;;;;5005762;28;20458;-72
2021/05/27 05:34:14;;;;;;;39.50;33.73;;;10.70;99.90;;;;;;5002002;28;20796;-73
2021/05/27 05:36:41;;;;;;;38.43;34.20;;;10.70;99.90;;;;;;5003362;28;20487;-73
2021/05/27 05:39:08;;;;;;;39.63;35.57;;;10.70;99.90;;;;;;5004587;28;20465;-72
2021/05/27 05:41:34;;;;;;;37.70;34.00;;;10.70;99.90;;;;;;5000709;28;20473;-73
2021/05/27 05:44:00;;;;;;;33.00;30.10;;;10.70;99.90;;;;;;5013671;28;20503;-72
2021/05/27 05:46:27;;;;;;;37.63;33.80;;;10.60;99.90;;;;;;5004273;28;20478;-72
2021/05/27 05:48:54;;;;;;;36.47;32.83;;;10.60;99.90;;;;;;5003684;28;20476;-74
2021/05/27 05:51:21;;;;;;;34.00;30.33;;;10.50;99.90;;;;;;5002601;28;20542;-74
2021/05/27 05:53:48;;;;;;;40.87;30.37;;;10.40;99.90;;;;;;5004001;28;20692;-72
2021/05/27 05:56:15;;;;;;;34.13;30.77;;;10.40;99.90;;;;;;5001031;28;20833;-73
2021/05/27 05:58:42;;;;;;;35.67;29.70;;;10.40;99.90;;;;;;5003383;28;20469;-72
2021/05/27 06:01:08;;;;;;;34.63;28.87;;;10.40;99.90;;;;;;5000282;28;20494;-73
2021/05/27 06:03:35;;;;;;;35.80;29.90;;;10.40;99.90;;;;;;5000782;28;20491;-76
2021/05/27 06:06:02;;;;;;;34.00;30.53;;;10.40;99.90;;;;;;5003935;28;20506;-74
2021/05/27 06:08:28;;;;;;;30.30;27.40;;;10.40;99.90;;;;;;5003743;28;20468;-74
2021/05/27 06:10:55;;;;;;;29.13;26.17;;;10.40;99.90;;;;;;5002234;28;20461;-74
2021/05/27 06:13:22;;;;;;;18.23;17.23;;;10.40;99.90;;;;;;5002931;28;20579;-74
2021/05/27 06:15:48;;;;;;;18.00;17.00;;;10.40;99.90;;;;;;4998878;28;20470;-74
2021/05/27 06:18:16;;;;;;;18.07;17.07;;;10.50;99.90;;;;;;5001051;28;20465;-75
2021/05/27 06:20:43;;;;;;;18.43;17.43;;;10.50;99.90;;;;;;4993796;28;20485;-74
2021/05/27 06:23:10;;;;;;;18.53;17.53;;;10.50;99.90;;;;;;4997446;28;20500;-77
2021/05/27 06:25:37;;;;;;;17.90;17.00;;;10.60;99.90;;;;;;5000335;28;20472;-76
2021/05/27 06:28:04;;;;;;;18.03;17.03;;;10.60;99.90;;;;;;4998035;28;20464;-75
2021/05/27 06:30:31;;;;;;;18.63;17.63;;;10.60;99.90;;;;;;5002553;28;20496;-76
2021/05/27 06:32:58;;;;;;;17.70;16.80;;;10.60;99.90;;;;;;4996546;28;20464;-75
2021/05/27 06:35:25;;;;;;;17.90;16.90;;;10.50;99.90;;;;;;5002194;28;20469;-75
2021/05/27 06:37:51;;;;;;;18.37;17.37;;;10.50;99.90;;;;;;5002041;28;20520;-74
2021/05/27 06:40:20;;;;;;;18.33;17.43;;;10.50;99.90;;;;;;4998408;28;20469;-79
2021/05/27 06:42:47;;;;;;;17.57;16.67;;;10.50;99.90;;;;;;4994262;28;21348;-78
2021/05/27 06:45:15;;;;;;;18.20;17.23;;;10.60;99.90;;;;;;4998063;28;20727;-77
2021/05/27 06:47:42;;;;;;;17.77;16.87;;;10.60;99.90;;;;;;5001999;28;21135;-76
2021/05/27 06:50:10;;;;;;;18.07;17.07;;;10.60;99.90;;;;;;5004010;28;20955;-75
2021/05/27 06:52:36;;;;;;;18.17;17.17;;;10.80;99.90;;;;;;4995501;28;20463;-76
2021/05/27 06:55:04;;;;;;;17.27;16.37;;;10.90;99.90;;;;;;4994919;28;20465;-76
2021/05/27 06:57:31;;;;;;;17.60;16.70;;;10.90;99.90;;;;;;4996322;28;20478;-76
2021/05/27 06:59:57;;;;;;;17.40;16.50;;;11.00;99.90;;;;;;5000004;28;20462;-75
2021/05/27 07:02:24;;;;;;;17.83;16.93;;;11.00;99.90;;;;;;5003851;28;20470;-77
2021/05/27 07:04:51;;;;;;;17.27;16.37;;;11.00;99.90;;;;;;4998115;28;20471;-77
2021/05/27 07:07:18;;;;;;;18.03;17.03;;;10.90;99.90;;;;;;5001009;28;20964;-76
2021/05/27 07:09:44;;;;;;;17.73;16.83;;;10.80;99.90;;;;;;5002056;28;20476;-76
2021/05/27 07:12:11;;;;;;;17.03;16.13;;;10.80;99.90;;;;;;5002012;28;20466;-75
2021/05/27 07:14:37;;;;;;;16.87;15.97;;;10.80;99.90;;;;;;5003670;28;20475;-75
2021/05/27 07:17:04;;;;;;;17.50;16.60;;;10.70;99.90;;;;;;4999424;28;20467;-75
2021/05/27 07:19:32;;;;;;;17.47;16.57;;;10.70;99.90;;;;;;4996535;28;20512;-75
2021/05/27 07:22:00;;;;;;;16.77;15.87;;;10.70;99.90;;;;;;4994338;28;20469;-74
2021/05/27 07:24:26;;;;;;;17.40;16.50;;;10.80;99.90;;;;;;4996839;28;21117;-75
2021/05/27 07:26:53;;;;;;;17.40;16.50;;;10.90;99.90;;;;;;4996981;28;20523;-74
2021/05/27 07:29:19;;;;;;;17.63;16.63;;;10.80;99.90;;;;;;4998436;28;20493;-75
2021/05/27 07:31:45;;;;;;;17.67;16.67;;;10.90;99.90;;;;;;4996247;28;20464;-74
2021/05/27 07:34:11;;;;;;;17.90;16.90;;;11.00;99.90;;;;;;4994473;28;20466;-74
2021/05/27 07:36:39;;;;;;;18.83;17.73;;;11.10;99.90;;;;;;5002102;28;20459;-79
2021/05/27 07:39:05;;;;;;;19.17;18.03;;;11.00;99.90;;;;;;5002170;28;20504;-75
2021/05/27 07:41:32;;;;;;;18.30;17.30;;;11.00;99.90;;;;;;5003026;28;20464;-75
2021/05/27 07:43:59;;;;;;;18.37;17.37;;;11.00;99.90;;;;;;5002077;28;20752;-75
2021/05/27 07:46:25;;;;;;;18.80;17.70;;;11.00;99.90;;;;;;5001580;28;20961;-75
2021/05/27 07:48:52;;;;;;;18.90;17.80;;;10.90;99.90;;;;;;5001256;28;21592;-80
2021/05/27 07:51:18;;;;;;;18.20;17.20;;;11.00;99.90;;;;;;5003136;28;20478;-77
2021/05/27 07:53:45;;;;;;;18.37;17.37;;;11.00;99.90;;;;;;5002204;28;20987;-74
2021/05/27 07:56:12;;;;;;;17.80;16.80;;;10.90;99.90;;;;;;4995652;28;20510;-75
2021/05/27 07:58:38;;;;;;;18.57;17.57;;;10.90;99.90;;;;;;5002510;28;20486;-74
2021/05/27 08:01:05;;;;;;;17.90;17.00;;;11.00;99.90;;;;;;5002615;28;21039;-75
2021/05/27 08:03:32;;;;;;;17.53;16.63;;;11.00;99.90;;;;;;4998793;28;21029;-75
2021/05/27 08:05:58;;;;;;;17.53;16.63;;;11.10;99.90;;;;;;5003007;28;20466;-78
2021/05/27 08:08:25;;;;;;;17.17;16.27;;;11.20;99.90;;;;;;5001443;28;20819;-74
2021/05/27 08:10:52;;;;;;;17.33;16.43;;;11.30;99.90;;;;;;4998603;28;20803;-75
2021/05/27 08:13:19;;;;;;;17.50;16.60;;;11.20;99.90;;;;;;5000292;28;20826;-78
2021/05/27 08:15:45;;;;;;;18.07;17.07;;;11.20;99.90;;;;;;5002481;28;20964;-75
2021/05/27 08:18:12;;;;;;;18.20;17.20;;;11.10;99.90;;;;;;4997588;28;20473;-75
2021/05/27 08:20:39;;;;;;;17.83;16.93;;;11.20;99.90;;;;;;5001496;28;20472;-80
2021/05/27 08:23:05;;;;;;;17.93;17.03;;;11.10;99.90;;;;;;5003911;28;20516;-77
2021/05/27 08:25:32;;;;;;;16.93;16.03;;;11.20;99.90;;;;;;5003015;28;20463;-77
2021/05/27 08:27:59;;;;;;;17.13;16.23;;;11.40;99.90;;;;;;4998487;28;20475;-76
2021/05/27 08:30:26;;;;;;;17.73;16.83;;;11.60;99.90;;;;;;5000896;28;20901;-77
2021/05/27 08:32:52;;;;;;;17.70;16.80;;;11.50;99.90;;;;;;5001883;28;20805;-76
2021/05/27 08:35:20;;;;;;;17.27;16.37;;;11.60;99.90;;;;;;5002524;28;20985;-75
2021/05/27 08:37:47;;;;;;;18.10;17.10;;;11.60;99.90;;;;;;4998813;28;20564;-78
2021/05/27 08:40:15;;;;;;;17.57;16.67;;;11.70;99.90;;;;;;4998686;28;20472;-77
2021/05/27 08:42:42;;;;;;;17.17;16.27;;;11.70;99.90;;;;;;4998917;28;20585;-77
2021/05/27 08:45:11;;;;;;;17.70;16.73;;;11.60;99.90;;;;;;4997368;28;20462;-76
2021/05/27 08:47:39;;;;;;;18.17;17.17;;;11.60;99.90;;;;;;4996814;28;21013;-77
2021/05/27 08:54:55;;;;;;;17.47;16.57;;;11.70;99.90;;;;;;4910808;29;20956;-74
2021/05/27 08:57:27;;;;;;;16.20;15.40;;;11.70;99.90;;;;;;4911157;29;21439;-74
2021/05/27 08:59:54;;;;;;;17.10;16.20;;;11.70;99.90;;;;;;5000458;28;20464;-76
2021/05/27 09:02:22;;;;;;;17.17;16.27;;;11.70;99.90;;;;;;5004767;28;20464;-74
2021/05/27 09:04:48;;;;;;;17.03;16.13;;;11.60;99.90;;;;;;4997657;28;20493;-74
2021/05/27 09:07:18;;;;;;;17.17;16.27;;;11.50;99.90;;;;;;5001132;28;20494;-75
2021/05/27 09:10:05;;;;;;;16.77;15.87;;;11.50;99.90;;;;;;4998798;28;20526;-75
2021/05/27 09:12:33;;;;;;;16.60;15.80;;;11.60;99.90;;;;;;4999211;28;20469;-75
2021/05/27 09:15:06;;;;;;;16.80;16.00;;;11.70;99.90;;;;;;4990278;28;20608;-74
2021/05/27 09:17:45;;;;;;;16.00;15.20;;;11.70;99.90;;;;;;5004453;28;20462;-75
2021/05/27 09:20:13;;;;;;;16.30;15.50;;;11.70;99.90;;;;;;5000748;28;20496;-74
2021/05/27 09:22:40;;;;;;;16.47;15.57;;;11.80;99.90;;;;;;4999048;28;20493;-74
2021/05/27 09:25:08;;;;;;;17.13;16.23;;;11.80;99.90;;;;;;4995761;28;20821;-74
2021/05/27 09:27:45;;;;;;;16.90;16.00;;;11.70;99.90;;;;;;4998644;28;20526;-74
2021/05/27 09:30:13;;;;;;;17.20;16.30;;;11.70;99.90;;;;;;4995111;28;20489;-73
2021/05/27 09:32:39;;;;;;;17.60;16.60;;;11.60;99.90;;;;;;4999547;28;20473;-73
2021/05/27 09:35:10;;;;;;;20.13;19.00;;;11.70;99.90;;;;;;5000285;28;20462;-76
2021/05/27 09:37:37;;;;;;;17.80;16.80;;;11.60;99.90;;;;;;4999549;28;20477;-74
2021/05/27 09:40:06;;;;;;;18.03;17.03;;;11.60;99.90;;;;;;5000087;28;20468;-73
2021/05/27 09:42:49;;;;;;;17.53;16.57;;;11.30;99.90;;;;;;4996070;28;20487;-74
2021/05/27 09:45:17;;;;;;;17.93;16.93;;;11.40;99.90;;;;;;4997350;28;20473;-74
2021/05/27 09:47:44;;;;;;;18.67;17.57;;;11.40;99.90;;;;;;5002143;28;20458;-74
2021/05/27 09:50:13;;;;;;;18.43;17.43;;;11.30;99.90;;;;;;4995642;28;20470;-74
2021/05/27 09:52:40;;;;;;;18.40;17.40;;;11.20;99.90;;;;;;4996136;28;20472;-73
2021/05/27 09:55:11;;;;;;;19.23;18.13;;;11.20;99.90;;;;;;4999738;28;20476;-75
2021/05/27 09:57:40;;;;;;;22.10;20.47;;;11.20;99.90;;;;;;4988963;28;20969;-73
2021/05/27 10:00:24;;;;;;;18.70;17.60;;;11.10;99.90;;;;;;4998860;28;20480;-73
2021/05/27 10:02:51;;;;;;;20.70;19.50;;;11.10;99.90;;;;;;4993512;28;20494;-74
2021/05/27 10:05:19;;;;;;;19.30;18.20;;;11.10;99.90;;;;;;4999169;28;20940;-77
2021/05/27 10:07:47;;;;;;;18.90;17.80;;;11.10;99.90;;;;;;4998795;28;20560;-76
2021/05/27 10:10:15;;;;;;;19.00;17.90;;;11.10;99.90;;;;;;4999902;28;21227;-74
2021/05/27 10:12:43;;;;;;;18.70;17.60;;;11.10;99.90;;;;;;4999411;28;20473;-75
2021/05/27 10:15:20;;;;;;;18.10;17.10;;;11.20;99.90;;;;;;4998819;28;20468;-75
2021/05/27 10:18:09;;;;;;;19.00;17.90;;;11.40;99.90;;;;;;5001487;28;20508;-76
2021/05/27 10:20:36;;;;;;;18.77;17.70;;;11.30;99.90;;;;;;4999879;28;20463;-75
2021/05/27 10:23:52;;;;;;;18.30;17.30;;;11.40;99.90;;;;;;4999119;28;20485;-75
2021/05/27 10:30:00;;;;;;;19.30;18.20;;;11.50;99.90;;;;;;4992744;28;20516;-73
2021/05/27 10:32:28;;;;;;;19.17;18.07;;;11.40;99.90;;;;;;4995217;28;21043;-79
2021/05/27 10:34:55;;;;;;;19.83;18.53;;;11.40;99.90;;;;;;4997453;28;20524;-78
2021/05/27 10:40:50;;;;;;;17.60;16.70;;;11.60;99.90;;;;;;4993064;28;20500;-75
2021/05/27 10:43:17;;;;;;;17.17;16.27;;;11.90;99.90;;;;;;4996464;28;20502;-76
2021/05/27 10:46:07;;;;;;;15.83;15.03;;;12.10;99.90;;;;;;4997502;28;20472;-75
2021/05/27 10:48:43;;;;;;;16.10;15.30;;;12.40;99.90;;;;;;4994647;28;20535;-74
2021/05/27 10:51:16;;;;;;;14.90;14.20;;;12.50;99.90;;;;;;4993121;28;20555;-75
2021/05/27 10:53:53;;;;;;;15.30;14.60;;;12.60;99.90;;;;;;5003276;28;20512;-75
2021/05/27 10:56:22;;;;;;;14.77;14.07;;;12.70;99.90;;;;;;4995999;28;20835;-75
2021/05/27 10:59:10;;;;;;;14.40;13.70;;;12.80;99.90;;;;;;4995539;28;20458;-74
2021/05/27 11:01:54;;;;;;;13.73;13.13;;;13.30;99.90;;;;;;4993049;28;21204;-74
2021/05/27 11:04:27;;;;;;;14.70;14.00;;;13.70;99.90;;;;;;4993559;28;20589;-76
2021/05/27 11:07:22;;;;;;;14.50;13.80;;;13.80;99.90;;;;;;4994455;28;21106;-73
2021/05/27 11:09:51;;;;;;;16.57;15.77;;;13.80;99.90;;;;;;4993054;28;20465;-75
2021/05/27 11:12:23;;;;;;;15.27;14.57;;;14.00;99.90;;;;;;4995474;28;21059;-75
2021/05/27 11:15:18;;;;;;;15.43;14.70;;;13.80;99.90;;;;;;4989322;28;20468;-74
2021/05/27 11:18:06;;;;;;;15.80;15.00;;;13.60;99.90;;;;;;4949669;28;20469;-75
2021/05/27 11:20:34;;;;;;;15.73;14.93;;;13.30;99.90;;;;;;4991683;28;20471;-75
2021/05/27 11:23:18;;;;;;;16.03;15.23;;;13.20;99.90;;;;;;4998839;28;20495;-76
2021/05/27 11:25:44;;;;;;;25.90;23.27;;;13.40;99.90;;;;;;4993748;28;20465;-74
2021/05/27 11:28:25;;;;;;;22.87;21.03;;;13.50;99.90;;;;;;4995023;28;20498;-75
2021/05/27 11:30:57;;;;;;;24.77;22.77;;;13.50;99.90;;;;;;4992565;28;20896;-74
2021/05/27 11:33:30;;;;;;;23.23;20.90;;;13.20;99.90;;;;;;4994483;28;20469;-75
2021/05/27 11:35:58;;;;;;;23.23;21.03;;;13.30;99.90;;;;;;5000020;28;20474;-76
2021/05/27 11:38:27;;;;;;;23.50;21.30;;;13.50;99.90;;;;;;4994078;28;20726;-76
2021/05/27 11:40:55;;;;;;;22.47;20.47;;;13.60;99.90;;;;;;4992157;28;20468;-74
2021/05/27 11:43:29;;;;;;;23.97;21.93;;;13.70;99.90;;;;;;4993211;28;20507;-73
2021/05/27 11:45:56;;;;;;;24.47;22.20;;;13.80;99.90;;;;;;4991016;28;20462;-74
2021/05/27 11:48:25;;;;;;;22.73;20.77;;;14.00;99.90;;;;;;4992146;28;20465;-75
2021/05/27 11:50:52;;;;;;;23.67;21.23;;;14.00;99.90;;;;;;4998109;28;20462;-74
2021/05/27 11:53:20;;;;;;;21.10;19.60;;;13.70;99.90;;;;;;4998699;28;20478;-74
2021/05/27 11:55:52;;;;;;;20.67;18.93;;;13.50;99.90;;;;;;4993389;28;20543;-73
2021/05/27 11:58:34;;;;;;;19.83;18.13;;;13.40;99.90;;;;;;4994433;28;20585;-74
2021/05/27 12:01:18;;;;;;;19.70;17.97;;;13.50;99.90;;;;;;4996540;28;20460;-75
2021/05/27 12:04:07;;;;;;;18.60;17.27;;;13.50;99.90;;;;;;4996961;28;20525;-73
2021/05/27 12:06:48;;;;;;;20.83;18.80;;;13.60;99.90;;;;;;4995323;28;20466;-72
2021/05/27 12:09:32;;;;;;;18.67;17.10;;;13.70;99.90;;;;;;4998014;28;20496;-73
2021/05/27 12:12:09;;;;;;;19.10;17.40;;;13.60;99.90;;;;;;4997156;28;20474;-74
2021/05/27 12:14:43;;;;;;;20.37;18.77;;;13.50;99.90;;;;;;4993877;28;20483;-74
2021/05/27 12:17:27;;;;;;;19.40;17.73;;;13.40;99.90;;;;;;5001311;28;20465;-73
2021/05/27 12:19:57;;;;;;;20.40;18.40;;;13.50;99.90;;;;;;4993067;28;20826;-76
2021/05/27 12:22:24;;;;;;;18.83;17.30;;;13.60;99.90;;;;;;4996717;28;20474;-75
2021/05/27 12:25:08;;;;;;;18.43;17.13;;;13.90;99.90;;;;;;4995645;28;20501;-74
2021/05/27 12:27:39;;;;;;;18.73;17.30;;;13.90;99.90;;;;;;4991785;28;20478;-74
2021/05/27 12:30:08;;;;;;;18.33;17.07;;;14.00;99.90;;;;;;4998223;28;20501;-73
2021/05/27 12:32:38;;;;;;;20.20;18.73;;;13.80;99.90;;;;;;5002148;28;20521;-74
2021/05/27 12:35:06;;;;;;;19.97;18.57;;;13.70;99.90;;;;;;4995026;28;20472;-75
2021/05/27 12:37:45;;;;;;;19.10;17.90;;;13.50;99.90;;;;;;4995978;28;20893;-73
2021/05/27 12:40:13;;;;;;;20.87;18.97;;;13.40;99.90;;;;;;4996502;28;20461;-73
2021/05/27 12:42:39;;;;;;;19.57;18.07;;;13.30;99.90;;;;;;4997595;28;20850;-73
2021/05/27 12:45:31;;;;;;;17.60;16.20;;;13.30;99.90;;;;;;4989268;28;20477;-75
2021/05/27 12:48:11;;;;;;;18.80;17.40;;;13.00;99.90;;;;;;5000409;28;20472;-73
2021/05/27 12:50:40;;;;;;;19.73;18.20;;;13.10;99.90;;;;;;5003525;28;20457;-74
2021/05/27 12:53:21;;;;;;;18.87;17.47;;;13.20;99.90;;;;;;5001800;28;20497;-74
2021/05/27 12:55:47;;;;;;;18.73;17.30;;;13.20;99.90;;;;;;4996876;28;20480;-73
2021/05/27 12:58:25;;;;;;;17.83;16.63;;;13.10;99.90;;;;;;4996910;28;20471;-75